Terminal Aerodrome Forecast
Issued by NWS

Home | Current Version | Previous Version | Text Only | Print | Product List | Glossary On
Versions: 1 2 3 4 5 6 7 8 9 10 11 12 13 14 15 16 17 18 19 20 21
328
FTUS43 KSGF 251159 CCA
TAFBBG
TAF COR
KBBG 251159Z 2512/2612 09005KT 2SM -SHRA VCTS OVC002CB
     FM251330 18009KT P6SM VCSH BKN050
     FM251700 26007KT P6SM VCSH OVC060
     FM252100 27009KT P6SM VCSH OVC030
     FM260000 27008KT P6SM BKN025
     FM260300 26005KT 3SM BR BKN009=

USA.gov is the U.S. government's official web portal to all federal, state and local government web resources and services.